sensor_id;sensor_type;location;lat;lon;timestamp;P1;durP1;ratioP1;P2;durP2;ratioP2
17570;SDS011;8903;52.220;20.978;2023-08-30T00:00:26;42.90;;;37.50;;
17570;SDS011;8903;52.220;20.978;2023-08-30T00:02:53;44.80;;;38.93;;
17570;SDS011;8903;52.220;20.978;2023-08-30T00:05:20;47.37;;;39.17;;
17570;SDS011;8903;52.220;20.978;2023-08-30T00:07:47;52.57;;;41.17;;
17570;SDS011;8903;52.220;20.978;2023-08-30T00:10:14;54.77;;;42.13;;
17570;SDS011;8903;52.220;20.978;2023-08-30T00:12:41;53.77;;;40.60;;
17570;SDS011;8903;52.220;20.978;2023-08-30T00:15:08;51.70;;;39.43;;
17570;SDS011;8903;52.220;20.978;2023-08-30T00:17:37;48.97;;;38.00;;
17570;SDS011;8903;52.220;20.978;2023-08-30T00:20:04;48.23;;;39.30;;
17570;SDS011;8903;52.220;20.978;2023-08-30T00:22:34;51.57;;;38.97;;
17570;SDS011;8903;52.220;20.978;2023-08-30T00:25:01;53.80;;;42.10;;
17570;SDS011;8903;52.220;20.978;2023-08-30T00:27:29;50.57;;;39.07;;
17570;SDS011;8903;52.220;20.978;2023-08-30T00:29:56;51.53;;;38.83;;
17570;SDS011;8903;52.220;20.978;2023-08-30T00:32:23;59.50;;;40.73;;
17570;SDS011;8903;52.220;20.978;2023-08-30T00:34:51;51.77;;;40.93;;
17570;SDS011;8903;52.220;20.978;2023-08-30T00:37:18;49.10;;;37.37;;
17570;SDS011;8903;52.220;20.978;2023-08-30T00:39:45;54.23;;;39.43;;
17570;SDS011;8903;52.220;20.978;2023-08-30T00:42:12;59.57;;;41.57;;
17570;SDS011;8903;52.220;20.978;2023-08-30T00:44:39;57.93;;;40.37;;
17570;SDS011;8903;52.220;20.978;2023-08-30T00:47:06;64.10;;;40.63;;
17570;SDS011;8903;52.220;20.978;2023-08-30T00:49:34;60.03;;;41.70;;
17570;SDS011;8903;52.220;20.978;2023-08-30T00:52:05;66.83;;;43.53;;
17570;SDS011;8903;52.220;20.978;2023-08-30T00:54:36;59.97;;;41.60;;
17570;SDS011;8903;52.220;20.978;2023-08-30T00:57:04;59.13;;;42.37;;
17570;SDS011;8903;52.220;20.978;2023-08-30T00:59:32;59.60;;;42.07;;
17570;SDS011;8903;52.220;20.978;2023-08-30T01:02:00;59.83;;;43.20;;
17570;SDS011;8903;52.220;20.978;2023-08-30T01:04:28;60.13;;;43.07;;
17570;SDS011;8903;52.220;20.978;2023-08-30T01:06:55;62.50;;;42.83;;
17570;SDS011;8903;52.220;20.978;2023-08-30T01:09:24;57.67;;;40.83;;
17570;SDS011;8903;52.220;20.978;2023-08-30T01:11:53;51.70;;;40.27;;
17570;SDS011;8903;52.220;20.978;2023-08-30T01:14:29;49.57;;;40.00;;
17570;SDS011;8903;52.220;20.978;2023-08-30T01:17:01;48.27;;;39.43;;
17570;SDS011;8903;52.220;20.978;2023-08-30T01:19:34;44.23;;;36.20;;
17570;SDS011;8903;52.220;20.978;2023-08-30T01:22:09;43.03;;;37.40;;
17570;SDS011;8903;52.220;20.978;2023-08-30T01:24:44;41.40;;;35.47;;
17570;SDS011;8903;52.220;20.978;2023-08-30T01:27:18;41.90;;;36.60;;
17570;SDS011;8903;52.220;20.978;2023-08-30T01:29:46;45.00;;;34.40;;
17570;SDS011;8903;52.220;20.978;2023-08-30T01:32:15;38.70;;;34.50;;
17570;SDS011;8903;52.220;20.978;2023-08-30T01:34:42;37.43;;;32.47;;
17570;SDS011;8903;52.220;20.978;2023-08-30T01:37:12;42.30;;;31.63;;
17570;SDS011;8903;52.220;20.978;2023-08-30T01:39:40;38.30;;;31.47;;
17570;SDS011;8903;52.220;20.978;2023-08-30T01:42:09;40.77;;;33.87;;
17570;SDS011;8903;52.220;20.978;2023-08-30T01:44:40;39.90;;;32.07;;
17570;SDS011;8903;52.220;20.978;2023-08-30T01:47:09;43.67;;;35.70;;
17570;SDS011;8903;52.220;20.978;2023-08-30T01:49:38;42.30;;;35.57;;
17570;SDS011;8903;52.220;20.978;2023-08-30T01:52:05;45.27;;;35.13;;
17570;SDS011;8903;52.220;20.978;2023-08-30T01:54:33;44.37;;;35.70;;
17570;SDS011;8903;52.220;20.978;2023-08-30T01:57:04;43.70;;;35.97;;
17570;SDS011;8903;52.220;20.978;2023-08-30T01:59:31;46.20;;;35.53;;
17570;SDS011;8903;52.220;20.978;2023-08-30T02:02:00;38.67;;;32.23;;
17570;SDS011;8903;52.220;20.978;2023-08-30T02:04:29;48.53;;;36.17;;
17570;SDS011;8903;52.220;20.978;2023-08-30T02:06:58;40.27;;;34.10;;
17570;SDS011;8903;52.220;20.978;2023-08-30T02:09:29;38.97;;;31.63;;
17570;SDS011;8903;52.220;20.978;2023-08-30T02:12:07;36.03;;;30.43;;
17570;SDS011;8903;52.220;20.978;2023-08-30T02:14:39;37.60;;;31.63;;
17570;SDS011;8903;52.220;20.978;2023-08-30T02:17:12;33.50;;;29.23;;
17570;SDS011;8903;52.220;20.978;2023-08-30T02:19:41;47.10;;;32.83;;
17570;SDS011;8903;52.220;20.978;2023-08-30T02:22:09;41.70;;;31.37;;
17570;SDS011;8903;52.220;20.978;2023-08-30T02:24:36;38.20;;;31.43;;
17570;SDS011;8903;52.220;20.978;2023-08-30T02:27:04;35.10;;;30.00;;
17570;SDS011;8903;52.220;20.978;2023-08-30T02:29:31;38.90;;;30.37;;
17570;SDS011;8903;52.220;20.978;2023-08-30T02:31:58;39.27;;;32.30;;
17570;SDS011;8903;52.220;20.978;2023-08-30T02:34:26;39.30;;;31.13;;
17570;SDS011;8903;52.220;20.978;2023-08-30T02:36:53;34.43;;;28.63;;
17570;SDS011;8903;52.220;20.978;2023-08-30T02:39:23;38.47;;;31.03;;
17570;SDS011;8903;52.220;20.978;2023-08-30T02:41:50;34.40;;;29.73;;
17570;SDS011;8903;52.220;20.978;2023-08-30T02:44:19;34.20;;;27.87;;
17570;SDS011;8903;52.220;20.978;2023-08-30T02:46:46;35.50;;;29.83;;
17570;SDS011;8903;52.220;20.978;2023-08-30T02:49:13;37.37;;;29.00;;
17570;SDS011;8903;52.220;20.978;2023-08-30T02:51:41;34.77;;;29.60;;
17570;SDS011;8903;52.220;20.978;2023-08-30T02:54:08;36.20;;;29.40;;
17570;SDS011;8903;52.220;20.978;2023-08-30T02:56:37;32.43;;;28.37;;
17570;SDS011;8903;52.220;20.978;2023-08-30T02:59:04;37.03;;;30.90;;
17570;SDS011;8903;52.220;20.978;2023-08-30T03:01:31;34.70;;;30.23;;
17570;SDS011;8903;52.220;20.978;2023-08-30T03:03:59;34.60;;;30.40;;
17570;SDS011;8903;52.220;20.978;2023-08-30T03:06:26;36.47;;;30.37;;
17570;SDS011;8903;52.220;20.978;2023-08-30T03:08:54;37.00;;;30.00;;
17570;SDS011;8903;52.220;20.978;2023-08-30T03:11:23;46.53;;;33.80;;
17570;SDS011;8903;52.220;20.978;2023-08-30T03:13:52;39.70;;;33.07;;
17570;SDS011;8903;52.220;20.978;2023-08-30T03:16:20;37.00;;;30.90;;
17570;SDS011;8903;52.220;20.978;2023-08-30T03:18:47;37.70;;;30.80;;
17570;SDS011;8903;52.220;20.978;2023-08-30T03:21:14;34.77;;;29.63;;
17570;SDS011;8903;52.220;20.978;2023-08-30T03:23:41;40.30;;;32.00;;
17570;SDS011;8903;52.220;20.978;2023-08-30T03:26:10;39.70;;;32.77;;
17570;SDS011;8903;52.220;20.978;2023-08-30T03:28:38;44.13;;;33.30;;
17570;SDS011;8903;52.220;20.978;2023-08-30T03:31:12;39.13;;;30.70;;
17570;SDS011;8903;52.220;20.978;2023-08-30T03:33:40;42.00;;;32.47;;
17570;SDS011;8903;52.220;20.978;2023-08-30T03:36:07;40.27;;;30.90;;
17570;SDS011;8903;52.220;20.978;2023-08-30T03:38:36;40.93;;;30.73;;
17570;SDS011;8903;52.220;20.978;2023-08-30T03:41:04;43.20;;;33.67;;
17570;SDS011;8903;52.220;20.978;2023-08-30T03:43:33;41.67;;;31.33;;
17570;SDS011;8903;52.220;20.978;2023-08-30T03:46:01;39.63;;;32.17;;
17570;SDS011;8903;52.220;20.978;2023-08-30T03:48:31;41.00;;;31.73;;
17570;SDS011;8903;52.220;20.978;2023-08-30T03:51:01;44.30;;;31.73;;
17570;SDS011;8903;52.220;20.978;2023-08-30T03:53:28;42.60;;;31.50;;
17570;SDS011;8903;52.220;20.978;2023-08-30T03:55:56;46.80;;;33.23;;
17570;SDS011;8903;52.220;20.978;2023-08-30T03:58:23;40.93;;;31.53;;
17570;SDS011;8903;52.220;20.978;2023-08-30T04:00:52;39.77;;;31.10;;
17570;SDS011;8903;52.220;20.978;2023-08-30T04:03:19;36.70;;;28.90;;
17570;SDS011;8903;52.220;20.978;2023-08-30T04:05:46;40.93;;;30.83;;
17570;SDS011;8903;52.220;20.978;2023-08-30T04:08:13;40.03;;;31.20;;
17570;SDS011;8903;52.220;20.978;2023-08-30T04:10:41;38.23;;;28.80;;
17570;SDS011;8903;52.220;20.978;2023-08-30T04:13:08;37.47;;;29.13;;
17570;SDS011;8903;52.220;20.978;2023-08-30T04:15:36;39.70;;;30.60;;
17570;SDS011;8903;52.220;20.978;2023-08-30T04:18:06;34.40;;;28.13;;
17570;SDS011;8903;52.220;20.978;2023-08-30T04:20:33;43.73;;;32.63;;
17570;SDS011;8903;52.220;20.978;2023-08-30T04:23:01;45.07;;;32.77;;
17570;SDS011;8903;52.220;20.978;2023-08-30T04:25:29;39.37;;;29.80;;
17570;SDS011;8903;52.220;20.978;2023-08-30T04:27:57;37.23;;;30.53;;
17570;SDS011;8903;52.220;20.978;2023-08-30T04:30:25;39.27;;;27.57;;
17570;SDS011;8903;52.220;20.978;2023-08-30T04:32:52;36.37;;;28.73;;
17570;SDS011;8903;52.220;20.978;2023-08-30T04:35:21;39.30;;;30.00;;
17570;SDS011;8903;52.220;20.978;2023-08-30T04:37:48;42.67;;;31.70;;
17570;SDS011;8903;52.220;20.978;2023-08-30T04:40:15;37.30;;;28.27;;
17570;SDS011;8903;52.220;20.978;2023-08-30T04:42:43;41.70;;;30.50;;
17570;SDS011;8903;52.220;20.978;2023-08-30T04:45:10;36.77;;;28.30;;
17570;SDS011;8903;52.220;20.978;2023-08-30T04:47:37;34.93;;;29.00;;
17570;SDS011;8903;52.220;20.978;2023-08-30T04:50:05;38.33;;;27.80;;
17570;SDS011;8903;52.220;20.978;2023-08-30T04:52:34;38.93;;;26.90;;
17570;SDS011;8903;52.220;20.978;2023-08-30T04:55:01;35.47;;;27.40;;
17570;SDS011;8903;52.220;20.978;2023-08-30T04:57:29;32.33;;;25.70;;
17570;SDS011;8903;52.220;20.978;2023-08-30T04:59:56;32.97;;;24.97;;
17570;SDS011;8903;52.220;20.978;2023-08-30T05:02:25;30.50;;;25.10;;
17570;SDS011;8903;52.220;20.978;2023-08-30T05:05:06;31.23;;;24.67;;
17570;SDS011;8903;52.220;20.978;2023-08-30T05:07:35;28.43;;;23.93;;
17570;SDS011;8903;52.220;20.978;2023-08-30T05:10:03;35.33;;;26.63;;
17570;SDS011;8903;52.220;20.978;2023-08-30T05:12:32;31.33;;;25.67;;
17570;SDS011;8903;52.220;20.978;2023-08-30T05:15:00;34.27;;;26.30;;
17570;SDS011;8903;52.220;20.978;2023-08-30T05:17:28;31.70;;;24.93;;
17570;SDS011;8903;52.220;20.978;2023-08-30T05:19:56;28.17;;;22.70;;
17570;SDS011;8903;52.220;20.978;2023-08-30T05:22:23;32.93;;;24.87;;
17570;SDS011;8903;52.220;20.978;2023-08-30T05:24:52;25.03;;;21.83;;
17570;SDS011;8903;52.220;20.978;2023-08-30T05:27:19;26.93;;;22.30;;
17570;SDS011;8903;52.220;20.978;2023-08-30T05:29:47;30.40;;;23.10;;
17570;SDS011;8903;52.220;20.978;2023-08-30T05:32:14;34.10;;;24.17;;
17570;SDS011;8903;52.220;20.978;2023-08-30T05:35:00;25.23;;;21.43;;
17570;SDS011;8903;52.220;20.978;2023-08-30T05:37:50;30.57;;;23.53;;
17570;SDS011;8903;52.220;20.978;2023-08-30T05:40:29;26.67;;;21.07;;
17570;SDS011;8903;52.220;20.978;2023-08-30T05:42:57;27.73;;;23.53;;
17570;SDS011;8903;52.220;20.978;2023-08-30T05:45:24;29.20;;;22.90;;
17570;SDS011;8903;52.220;20.978;2023-08-30T05:47:51;29.50;;;22.00;;
17570;SDS011;8903;52.220;20.978;2023-08-30T05:50:18;28.40;;;21.53;;
17570;SDS011;8903;52.220;20.978;2023-08-30T05:52:45;24.73;;;20.40;;
17570;SDS011;8903;52.220;20.978;2023-08-30T05:55:13;27.80;;;23.20;;
17570;SDS011;8903;52.220;20.978;2023-08-30T05:57:41;29.33;;;21.60;;
17570;SDS011;8903;52.220;20.978;2023-08-30T06:00:09;25.63;;;21.50;;
17570;SDS011;8903;52.220;20.978;2023-08-30T06:02:42;29.73;;;21.00;;
17570;SDS011;8903;52.220;20.978;2023-08-30T06:05:11;28.67;;;21.30;;
17570;SDS011;8903;52.220;20.978;2023-08-30T06:07:38;25.57;;;20.80;;
17570;SDS011;8903;52.220;20.978;2023-08-30T06:10:06;28.23;;;22.37;;
17570;SDS011;8903;52.220;20.978;2023-08-30T06:12:34;29.50;;;21.30;;
17570;SDS011;8903;52.220;20.978;2023-08-30T06:15:03;28.83;;;21.10;;
17570;SDS011;8903;52.220;20.978;2023-08-30T06:17:31;33.83;;;23.87;;
17570;SDS011;8903;52.220;20.978;2023-08-30T06:19:58;31.90;;;23.67;;
17570;SDS011;8903;52.220;20.978;2023-08-30T06:22:25;32.30;;;22.90;;
17570;SDS011;8903;52.220;20.978;2023-08-30T06:24:53;29.60;;;21.97;;
17570;SDS011;8903;52.220;20.978;2023-08-30T06:27:20;31.40;;;23.37;;
17570;SDS011;8903;52.220;20.978;2023-08-30T06:29:47;31.10;;;23.03;;
17570;SDS011;8903;52.220;20.978;2023-08-30T06:32:15;31.57;;;23.80;;
17570;SDS011;8903;52.220;20.978;2023-08-30T06:34:43;28.57;;;22.60;;
17570;SDS011;8903;52.220;20.978;2023-08-30T06:37:11;26.10;;;20.90;;
17570;SDS011;8903;52.220;20.978;2023-08-30T06:39:38;27.13;;;22.10;;
17570;SDS011;8903;52.220;20.978;2023-08-30T06:42:08;29.80;;;21.10;;
17570;SDS011;8903;52.220;20.978;2023-08-30T06:44:38;26.60;;;21.90;;
17570;SDS011;8903;52.220;20.978;2023-08-30T06:47:06;25.80;;;21.40;;
17570;SDS011;8903;52.220;20.978;2023-08-30T06:49:36;30.37;;;24.60;;
17570;SDS011;8903;52.220;20.978;2023-08-30T06:52:03;27.83;;;20.30;;
17570;SDS011;8903;52.220;20.978;2023-08-30T06:54:33;30.53;;;21.70;;
17570;SDS011;8903;52.220;20.978;2023-08-30T06:57:01;26.07;;;21.30;;
17570;SDS011;8903;52.220;20.978;2023-08-30T06:59:28;28.80;;;23.33;;
17570;SDS011;8903;52.220;20.978;2023-08-30T07:01:55;28.30;;;22.00;;
17570;SDS011;8903;52.220;20.978;2023-08-30T07:04:23;31.80;;;24.50;;
17570;SDS011;8903;52.220;20.978;2023-08-30T07:06:53;33.73;;;25.13;;
17570;SDS011;8903;52.220;20.978;2023-08-30T07:09:20;38.63;;;28.30;;
17570;SDS011;8903;52.220;20.978;2023-08-30T07:11:56;36.10;;;26.50;;
17570;SDS011;8903;52.220;20.978;2023-08-30T07:14:25;49.97;;;29.43;;
17570;SDS011;8903;52.220;20.978;2023-08-30T07:16:52;44.73;;;32.70;;
17570;SDS011;8903;52.220;20.978;2023-08-30T07:19:19;50.77;;;30.80;;
17570;SDS011;8903;52.220;20.978;2023-08-30T07:21:46;44.10;;;30.90;;
17570;SDS011;8903;52.220;20.978;2023-08-30T07:24:14;45.57;;;31.40;;
17570;SDS011;8903;52.220;20.978;2023-08-30T07:26:41;43.47;;;32.03;;
17570;SDS011;8903;52.220;20.978;2023-08-30T07:29:09;43.30;;;32.53;;
17570;SDS011;8903;52.220;20.978;2023-08-30T07:31:36;41.47;;;32.13;;
17570;SDS011;8903;52.220;20.978;2023-08-30T07:34:04;48.50;;;33.60;;
17570;SDS011;8903;52.220;20.978;2023-08-30T07:36:31;46.50;;;35.07;;
17570;SDS011;8903;52.220;20.978;2023-08-30T07:38:58;60.30;;;39.43;;
17570;SDS011;8903;52.220;20.978;2023-08-30T07:41:27;61.63;;;38.77;;
17570;SDS011;8903;52.220;20.978;2023-08-30T07:43:54;62.83;;;40.00;;
17570;SDS011;8903;52.220;20.978;2023-08-30T07:46:21;62.40;;;40.20;;
17570;SDS011;8903;52.220;20.978;2023-08-30T07:48:48;63.43;;;40.73;;
17570;SDS011;8903;52.220;20.978;2023-08-30T07:51:15;69.67;;;42.57;;
17570;SDS011;8903;52.220;20.978;2023-08-30T07:53:42;112.33;;;44.77;;
17570;SDS011;8903;52.220;20.978;2023-08-30T07:56:09;86.00;;;43.17;;
17570;SDS011;8903;52.220;20.978;2023-08-30T07:58:37;80.50;;;41.73;;
17570;SDS011;8903;52.220;20.978;2023-08-30T08:01:07;76.07;;;41.77;;
17570;SDS011;8903;52.220;20.978;2023-08-30T08:03:34;70.27;;;39.93;;
17570;SDS011;8903;52.220;20.978;2023-08-30T08:06:01;79.40;;;41.53;;
17570;SDS011;8903;52.220;20.978;2023-08-30T08:08:29;82.77;;;41.80;;
17570;SDS011;8903;52.220;20.978;2023-08-30T08:10:56;80.13;;;42.50;;
17570;SDS011;8903;52.220;20.978;2023-08-30T08:13:24;101.23;;;44.57;;
17570;SDS011;8903;52.220;20.978;2023-08-30T08:15:53;132.00;;;47.43;;
17570;SDS011;8903;52.220;20.978;2023-08-30T08:18:22;121.87;;;46.60;;
17570;SDS011;8903;52.220;20.978;2023-08-30T08:20:49;110.10;;;47.97;;
17570;SDS011;8903;52.220;20.978;2023-08-30T08:23:16;141.23;;;48.00;;
17570;SDS011;8903;52.220;20.978;2023-08-30T08:25:43;103.20;;;43.80;;
17570;SDS011;8903;52.220;20.978;2023-08-30T08:28:10;142.83;;;48.07;;
17570;SDS011;8903;52.220;20.978;2023-08-30T08:30:37;129.23;;;44.20;;
17570;SDS011;8903;52.220;20.978;2023-08-30T08:33:05;115.57;;;45.17;;
17570;SDS011;8903;52.220;20.978;2023-08-30T08:35:33;127.87;;;45.67;;
17570;SDS011;8903;52.220;20.978;2023-08-30T08:38:00;101.50;;;39.47;;
17570;SDS011;8903;52.220;20.978;2023-08-30T08:40:28;156.20;;;46.97;;
17570;SDS011;8903;52.220;20.978;2023-08-30T08:42:55;120.20;;;40.93;;
17570;SDS011;8903;52.220;20.978;2023-08-30T08:45:22;104.20;;;40.80;;
17570;SDS011;8903;52.220;20.978;2023-08-30T08:47:49;102.03;;;38.47;;
17570;SDS011;8903;52.220;20.978;2023-08-30T08:50:19;153.57;;;45.63;;
17570;SDS011;8903;52.220;20.978;2023-08-30T08:52:46;108.27;;;40.17;;
17570;SDS011;8903;52.220;20.978;2023-08-30T08:55:14;100.40;;;38.90;;
17570;SDS011;8903;52.220;20.978;2023-08-30T08:57:41;94.17;;;34.93;;
17570;SDS011;8903;52.220;20.978;2023-08-30T09:00:10;117.20;;;38.77;;
17570;SDS011;8903;52.220;20.978;2023-08-30T09:02:38;88.03;;;30.83;;
17570;SDS011;8903;52.220;20.978;2023-08-30T09:05:07;73.23;;;25.67;;
17570;SDS011;8903;52.220;20.978;2023-08-30T09:07:35;60.20;;;26.00;;
17570;SDS011;8903;52.220;20.978;2023-08-30T09:10:03;102.77;;;31.83;;
17570;SDS011;8903;52.220;20.978;2023-08-30T09:12:32;77.20;;;31.13;;
17570;SDS011;8903;52.220;20.978;2023-08-30T09:14:59;79.23;;;29.83;;
17570;SDS011;8903;52.220;20.978;2023-08-30T09:17:34;72.07;;;27.07;;
17570;SDS011;8903;52.220;20.978;2023-08-30T09:20:06;119.03;;;31.67;;
17570;SDS011;8903;52.220;20.978;2023-08-30T09:22:39;73.60;;;25.90;;
17570;SDS011;8903;52.220;20.978;2023-08-30T09:25:07;67.77;;;26.67;;
17570;SDS011;8903;52.220;20.978;2023-08-30T09:27:36;34.33;;;18.70;;
17570;SDS011;8903;52.220;20.978;2023-08-30T09:30:06;38.43;;;18.53;;
17570;SDS011;8903;52.220;20.978;2023-08-30T09:32:39;38.97;;;19.47;;
17570;SDS011;8903;52.220;20.978;2023-08-30T09:35:07;37.33;;;20.20;;
17570;SDS011;8903;52.220;20.978;2023-08-30T09:37:35;59.83;;;24.33;;
17570;SDS011;8903;52.220;20.978;2023-08-30T09:40:04;57.93;;;25.70;;
17570;SDS011;8903;52.220;20.978;2023-08-30T09:42:32;75.43;;;27.43;;
17570;SDS011;8903;52.220;20.978;2023-08-30T09:44:59;60.07;;;27.70;;
17570;SDS011;8903;52.220;20.978;2023-08-30T09:47:27;34.43;;;22.17;;
17570;SDS011;8903;52.220;20.978;2023-08-30T09:49:55;85.03;;;29.97;;
17570;SDS011;8903;52.220;20.978;2023-08-30T09:52:24;55.33;;;26.67;;
17570;SDS011;8903;52.220;20.978;2023-08-30T09:54:54;47.20;;;25.10;;
17570;SDS011;8903;52.220;20.978;2023-08-30T09:57:24;81.40;;;30.30;;
17570;SDS011;8903;52.220;20.978;2023-08-30T09:59:52;43.57;;;24.53;;
17570;SDS011;8903;52.220;20.978;2023-08-30T10:02:19;61.20;;;27.70;;
17570;SDS011;8903;52.220;20.978;2023-08-30T10:04:47;59.53;;;27.87;;
17570;SDS011;8903;52.220;20.978;2023-08-30T10:07:16;43.40;;;24.30;;
17570;SDS011;8903;52.220;20.978;2023-08-30T10:09:44;65.40;;;25.30;;
17570;SDS011;8903;52.220;20.978;2023-08-30T10:12:12;51.60;;;24.30;;
17570;SDS011;8903;52.220;20.978;2023-08-30T10:14:42;53.13;;;26.00;;
17570;SDS011;8903;52.220;20.978;2023-08-30T10:17:09;142.23;;;36.37;;
17570;SDS011;8903;52.220;20.978;2023-08-30T10:19:38;56.37;;;26.30;;
17570;SDS011;8903;52.220;20.978;2023-08-30T10:22:07;54.80;;;24.33;;
17570;SDS011;8903;52.220;20.978;2023-08-30T10:24:38;77.00;;;30.30;;
17570;SDS011;8903;52.220;20.978;2023-08-30T10:27:08;68.53;;;28.73;;
17570;SDS011;8903;52.220;20.978;2023-08-30T10:29:37;45.27;;;25.97;;
17570;SDS011;8903;52.220;20.978;2023-08-30T10:32:08;66.00;;;29.63;;
17570;SDS011;8903;52.220;20.978;2023-08-30T10:34:36;52.53;;;24.53;;
17570;SDS011;8903;52.220;20.978;2023-08-30T10:37:06;56.87;;;25.80;;
17570;SDS011;8903;52.220;20.978;2023-08-30T10:39:34;61.63;;;26.10;;
17570;SDS011;8903;52.220;20.978;2023-08-30T10:42:07;44.27;;;26.60;;
17570;SDS011;8903;52.220;20.978;2023-08-30T10:44:46;71.87;;;27.17;;
17570;SDS011;8903;52.220;20.978;2023-08-30T10:47:21;61.37;;;29.00;;
17570;SDS011;8903;52.220;20.978;2023-08-30T10:49:53;69.60;;;27.53;;
17570;SDS011;8903;52.220;20.978;2023-08-30T10:52:20;53.13;;;26.30;;
17570;SDS011;8903;52.220;20.978;2023-08-30T10:54:47;49.37;;;24.33;;
17570;SDS011;8903;52.220;20.978;2023-08-30T10:57:15;43.40;;;24.53;;
17570;SDS011;8903;52.220;20.978;2023-08-30T11:02:34;49.53;;;22.80;;
17570;SDS011;8903;52.220;20.978;2023-08-30T11:05:01;61.23;;;23.57;;
17570;SDS011;8903;52.220;20.978;2023-08-30T11:07:31;75.83;;;27.63;;
17570;SDS011;8903;52.220;20.978;2023-08-30T11:09:59;51.67;;;22.90;;
17570;SDS011;8903;52.220;20.978;2023-08-30T11:12:26;42.03;;;20.50;;
17570;SDS011;8903;52.220;20.978;2023-08-30T11:14:55;37.17;;;20.33;;
17570;SDS011;8903;52.220;20.978;2023-08-30T11:17:22;55.23;;;23.20;;
17570;SDS011;8903;52.220;20.978;2023-08-30T11:19:51;55.87;;;21.37;;
17570;SDS011;8903;52.220;20.978;2023-08-30T11:22:24;30.73;;;17.57;;
17570;SDS011;8903;52.220;20.978;2023-08-30T11:24:51;39.27;;;19.00;;
17570;SDS011;8903;52.220;20.978;2023-08-30T11:27:18;44.57;;;19.37;;
17570;SDS011;8903;52.220;20.978;2023-08-30T11:29:45;48.00;;;19.67;;
17570;SDS011;8903;52.220;20.978;2023-08-30T11:32:12;40.73;;;20.17;;
17570;SDS011;8903;52.220;20.978;2023-08-30T11:34:39;46.03;;;20.40;;
17570;SDS011;8903;52.220;20.978;2023-08-30T11:37:08;53.00;;;21.50;;
17570;SDS011;8903;52.220;20.978;2023-08-30T11:39:35;30.40;;;17.40;;
17570;SDS011;8903;52.220;20.978;2023-08-30T11:42:04;40.53;;;19.40;;
17570;SDS011;8903;52.220;20.978;2023-08-30T11:44:31;27.67;;;16.97;;
17570;SDS011;8903;52.220;20.978;2023-08-30T11:46:59;31.97;;;17.67;;
17570;SDS011;8903;52.220;20.978;2023-08-30T11:49:26;39.37;;;18.93;;
17570;SDS011;8903;52.220;20.978;2023-08-30T11:51:54;37.33;;;17.63;;
17570;SDS011;8903;52.220;20.978;2023-08-30T11:54:24;33.70;;;16.60;;
17570;SDS011;8903;52.220;20.978;2023-08-30T11:56:52;30.43;;;15.17;;
17570;SDS011;8903;52.220;20.978;2023-08-30T11:59:19;50.77;;;20.03;;
17570;SDS011;8903;52.220;20.978;2023-08-30T12:01:47;37.17;;;18.30;;
17570;SDS011;8903;52.220;20.978;2023-08-30T12:04:14;41.97;;;19.80;;
17570;SDS011;8903;52.220;20.978;2023-08-30T12:06:43;54.10;;;25.93;;
17570;SDS011;8903;52.220;20.978;2023-08-30T12:09:17;44.53;;;22.30;;
17570;SDS011;8903;52.220;20.978;2023-08-30T12:11:48;57.20;;;22.40;;
17570;SDS011;8903;52.220;20.978;2023-08-30T12:14:15;37.70;;;18.53;;
17570;SDS011;8903;52.220;20.978;2023-08-30T12:16:43;51.13;;;22.13;;
17570;SDS011;8903;52.220;20.978;2023-08-30T12:19:12;45.80;;;21.93;;
17570;SDS011;8903;52.220;20.978;2023-08-30T12:21:41;45.90;;;19.77;;
17570;SDS011;8903;52.220;20.978;2023-08-30T12:24:08;60.47;;;22.40;;
17570;SDS011;8903;52.220;20.978;2023-08-30T12:26:35;39.30;;;19.10;;
17570;SDS011;8903;52.220;20.978;2023-08-30T12:29:05;50.10;;;22.43;;
17570;SDS011;8903;52.220;20.978;2023-08-30T12:31:32;54.40;;;22.47;;
17570;SDS011;8903;52.220;20.978;2023-08-30T12:33:59;51.77;;;22.07;;
17570;SDS011;8903;52.220;20.978;2023-08-30T12:36:26;56.47;;;23.17;;
17570;SDS011;8903;52.220;20.978;2023-08-30T12:38:53;41.90;;;20.93;;
17570;SDS011;8903;52.220;20.978;2023-08-30T12:41:20;47.43;;;20.97;;
17570;SDS011;8903;52.220;20.978;2023-08-30T12:43:48;49.43;;;21.67;;
17570;SDS011;8903;52.220;20.978;2023-08-30T12:46:17;51.23;;;24.00;;
17570;SDS011;8903;52.220;20.978;2023-08-30T12:48:44;47.87;;;18.37;;
17570;SDS011;8903;52.220;20.978;2023-08-30T12:51:11;55.77;;;20.60;;
17570;SDS011;8903;52.220;20.978;2023-08-30T12:53:40;43.40;;;20.10;;
17570;SDS011;8903;52.220;20.978;2023-08-30T12:56:07;55.97;;;22.00;;
17570;SDS011;8903;52.220;20.978;2023-08-30T12:58:34;47.20;;;20.07;;
17570;SDS011;8903;52.220;20.978;2023-08-30T13:01:01;34.97;;;19.93;;
17570;SDS011;8903;52.220;20.978;2023-08-30T13:03:30;56.80;;;24.37;;
17570;SDS011;8903;52.220;20.978;2023-08-30T13:05:57;60.13;;;25.97;;
17570;SDS011;8903;52.220;20.978;2023-08-30T13:08:24;59.17;;;26.50;;
17570;SDS011;8903;52.220;20.978;2023-08-30T13:10:51;59.43;;;27.90;;
17570;SDS011;8903;52.220;20.978;2023-08-30T13:13:18;34.87;;;21.77;;
17570;SDS011;8903;52.220;20.978;2023-08-30T13:15:46;56.70;;;25.80;;
17570;SDS011;8903;52.220;20.978;2023-08-30T13:18:13;46.67;;;24.03;;
17570;SDS011;8903;52.220;20.978;2023-08-30T13:20:42;49.23;;;25.93;;
17570;SDS011;8903;52.220;20.978;2023-08-30T13:23:10;47.33;;;24.10;;
17570;SDS011;8903;52.220;20.978;2023-08-30T13:25:38;55.73;;;25.47;;
17570;SDS011;8903;52.220;20.978;2023-08-30T13:28:06;47.57;;;25.23;;
17570;SDS011;8903;52.220;20.978;2023-08-30T13:30:33;61.00;;;26.43;;
17570;SDS011;8903;52.220;20.978;2023-08-30T13:33:00;39.73;;;23.60;;
17570;SDS011;8903;52.220;20.978;2023-08-30T13:35:27;49.27;;;22.37;;
17570;SDS011;8903;52.220;20.978;2023-08-30T13:37:55;40.60;;;22.17;;
17570;SDS011;8903;52.220;20.978;2023-08-30T13:40:23;43.93;;;21.90;;
17570;SDS011;8903;52.220;20.978;2023-08-30T13:42:50;57.40;;;23.50;;
17570;SDS011;8903;52.220;20.978;2023-08-30T13:45:17;45.83;;;21.57;;
17570;SDS011;8903;52.220;20.978;2023-08-30T13:47:44;47.93;;;23.07;;
17570;SDS011;8903;52.220;20.978;2023-08-30T13:50:12;42.80;;;21.67;;
17570;SDS011;8903;52.220;20.978;2023-08-30T13:52:39;47.70;;;22.43;;
17570;SDS011;8903;52.220;20.978;2023-08-30T13:55:08;40.20;;;22.23;;
17570;SDS011;8903;52.220;20.978;2023-08-30T13:57:35;52.27;;;25.10;;
17570;SDS011;8903;52.220;20.978;2023-08-30T14:00:02;36.80;;;20.70;;
17570;SDS011;8903;52.220;20.978;2023-08-30T14:02:33;33.20;;;21.13;;
17570;SDS011;8903;52.220;20.978;2023-08-30T14:05:00;29.20;;;16.63;;
17570;SDS011;8903;52.220;20.978;2023-08-30T14:07:27;37.07;;;18.73;;
17570;SDS011;8903;52.220;20.978;2023-08-30T14:09:54;27.90;;;15.90;;
17570;SDS011;8903;52.220;20.978;2023-08-30T14:12:23;28.07;;;16.50;;
17570;SDS011;8903;52.220;20.978;2023-08-30T14:14:50;31.70;;;17.63;;
17570;SDS011;8903;52.220;20.978;2023-08-30T14:17:18;26.13;;;16.80;;
17570;SDS011;8903;52.220;20.978;2023-08-30T14:19:45;25.03;;;17.13;;
17570;SDS011;8903;52.220;20.978;2023-08-30T14:22:12;22.13;;;16.33;;
17570;SDS011;8903;52.220;20.978;2023-08-30T14:24:39;23.37;;;16.07;;
17570;SDS011;8903;52.220;20.978;2023-08-30T14:27:06;24.47;;;16.80;;
17570;SDS011;8903;52.220;20.978;2023-08-30T14:29:35;23.47;;;15.93;;